createdAt,value
2018-12-06T00:00:44.862Z,7.00
2018-12-06T00:03:21.562Z,12.07
2018-12-06T00:05:52.358Z,8.60
2018-12-06T00:08:21.182Z,10.72
2018-12-06T00:10:53.442Z,3.87
2018-12-06T00:13:40.822Z,3.05
2018-12-06T00:16:15.351Z,8.08
2018-12-06T00:18:54.966Z,5.78
2018-12-06T00:21:27.256Z,6.28
2018-12-06T00:24:02.079Z,4.90
2018-12-06T00:26:40.534Z,7.33
2018-12-06T00:29:09.398Z,12.30
2018-12-06T00:31:38.198Z,7.20
2018-12-06T00:34:12.374Z,7.78
2018-12-06T00:36:43.069Z,13.83
2018-12-06T00:39:13.778Z,4.05
2018-12-06T00:41:54.502Z,12.50
2018-12-06T00:44:28.086Z,5.08
2018-12-06T00:46:57.822Z,9.88
2018-12-06T00:49:27.630Z,24.87
2018-12-06T00:51:57.450Z,3.20
2018-12-06T00:54:29.866Z,4.95
2018-12-06T00:57:06.206Z,8.85
2018-12-06T00:59:37.034Z,7.17
2018-12-06T01:02:07.814Z,3.25
2018-12-06T01:04:41.712Z,3.77
2018-12-06T01:07:19.138Z,4.37
2018-12-06T01:09:49.902Z,7.97
2018-12-06T01:12:28.498Z,11.70
2018-12-06T01:14:57.413Z,3.15
2018-12-06T01:17:29.694Z,8.90
2018-12-06T01:19:59.357Z,4.70
2018-12-06T01:22:28.249Z,6.62
2018-12-06T01:24:59.030Z,8.23
2018-12-06T01:27:27.915Z,5.45
2018-12-06T01:29:56.809Z,4.75
2018-12-06T01:32:25.602Z,3.55
2018-12-06T01:35:08.662Z,4.78
2018-12-06T01:37:39.482Z,3.12
2018-12-06T01:40:16.742Z,2.90
2018-12-06T01:42:46.434Z,5.03
2018-12-06T01:45:19.907Z,9.30
2018-12-06T01:47:54.263Z,5.17
2018-12-06T01:50:27.318Z,5.87
2018-12-06T01:52:56.188Z,4.10
2018-12-06T01:55:27.863Z,9.53
2018-12-06T01:57:57.701Z,5.25
2018-12-06T02:00:28.446Z,3.42
2018-12-06T02:03:00.765Z,7.30
2018-12-06T02:05:30.757Z,4.12
2018-12-06T02:08:06.953Z,16.42
2018-12-06T02:10:43.613Z,14.38
2018-12-06T02:13:12.481Z,6.75
2018-12-06T02:15:45.046Z,7.15
2018-12-06T02:18:13.853Z,4.03
2018-12-06T02:20:43.529Z,3.95
2018-12-06T02:23:24.796Z,2.83
2018-12-06T02:25:55.547Z,3.20
2018-12-06T02:28:30.618Z,12.73
2018-12-06T02:30:59.490Z,5.15
2018-12-06T02:33:34.501Z,6.62
2018-12-06T02:36:09.230Z,8.63
2018-12-06T02:38:40.365Z,4.05
2018-12-06T02:41:09.229Z,3.98
2018-12-06T02:43:39.748Z,3.08
2018-12-06T02:46:11.722Z,7.85
2018-12-06T02:48:48.322Z,3.27
2018-12-06T02:51:24.541Z,4.60
2018-12-06T02:53:53.381Z,6.70
2018-12-06T02:56:34.785Z,3.58
2018-12-06T02:59:04.517Z,7.30
2018-12-06T03:01:33.309Z,3.72
2018-12-06T03:04:03.073Z,4.05
2018-12-06T03:06:31.902Z,12.60
2018-12-06T03:09:06.277Z,7.20
2018-12-06T03:11:36.041Z,5.22
2018-12-06T03:14:04.930Z,4.53
2018-12-06T03:16:38.941Z,5.37
2018-12-06T03:19:12.637Z,3.42
2018-12-06T03:21:42.493Z,3.85
2018-12-06T03:24:12.185Z,7.75
2018-12-06T03:26:40.937Z,12.37
2018-12-06T03:31:38.922Z,8.60
2018-12-06T03:34:11.597Z,8.50
2018-12-06T03:36:47.674Z,6.05
2018-12-06T03:39:22.617Z,7.75
2018-12-06T03:41:52.409Z,8.05
2018-12-06T03:44:28.870Z,24.15
2018-12-06T03:46:57.715Z,9.45
2018-12-06T03:49:39.584Z,7.58
2018-12-06T03:52:10.413Z,7.90
2018-12-06T03:54:47.449Z,5.92
2018-12-06T03:57:24.246Z,12.58
2018-12-06T03:59:58.232Z,5.90
2018-12-06T04:02:29.070Z,6.70
2018-12-06T04:05:00.856Z,6.35
2018-12-06T04:07:30.181Z,17.75
2018-12-06T04:10:06.156Z,8.20
2018-12-06T04:12:39.963Z,9.10
2018-12-06T04:15:13.123Z,8.58
2018-12-06T04:17:42.870Z,8.70
2018-12-06T04:20:14.902Z,5.25
2018-12-06T04:22:43.698Z,9.38
2018-12-06T04:25:23.982Z,7.40
2018-12-06T04:27:59.774Z,6.83
2018-12-06T04:30:28.618Z,10.23
2018-12-06T04:32:59.430Z,14.65
2018-12-06T04:35:28.299Z,9.90
2018-12-06T04:37:57.107Z,8.33
2018-12-06T04:40:29.547Z,15.55
2018-12-06T04:42:58.343Z,4.60
2018-12-06T04:45:27.071Z,12.53
2018-12-06T04:47:56.888Z,8.00
2018-12-06T04:50:37.800Z,6.53
2018-12-06T04:53:11.327Z,7.42
2018-12-06T04:55:42.900Z,7.62
2018-12-06T04:58:11.767Z,15.38
2018-12-06T05:00:40.688Z,6.67
2018-12-06T05:03:12.942Z,7.95
2018-12-06T05:05:47.675Z,9.45
2018-12-06T05:08:16.537Z,9.28
2018-12-06T05:10:45.315Z,10.85
2018-12-06T05:13:14.261Z,9.23
2018-12-06T05:15:42.955Z,13.95
2018-12-06T05:18:15.863Z,18.25
2018-12-06T05:20:50.216Z,10.55
2018-12-06T05:23:18.972Z,9.13
2018-12-06T05:25:48.795Z,11.10
2018-12-06T05:28:19.515Z,10.28
2018-12-06T05:30:48.363Z,5.30
2018-12-06T05:33:17.201Z,18.95
2018-12-06T05:35:56.751Z,11.20
2018-12-06T05:38:30.639Z,11.30
2018-12-06T05:40:59.473Z,12.55
2018-12-06T05:43:28.339Z,24.32
2018-12-06T05:46:09.517Z,7.08
2018-12-06T05:48:40.287Z,15.58
2018-12-06T05:51:22.595Z,7.97
2018-12-06T05:53:52.351Z,10.88
2018-12-06T05:56:35.806Z,10.28
2018-12-06T05:59:06.006Z,16.48
2018-12-06T06:01:49.062Z,13.88
2018-12-06T06:04:23.346Z,11.12
2018-12-06T06:07:15.254Z,9.60
2018-12-06T06:09:46.027Z,10.72
2018-12-06T06:12:16.948Z,11.63
2018-12-06T06:14:47.274Z,10.68
2018-12-06T06:17:26.587Z,11.18
2018-12-06T06:19:55.402Z,15.05
2018-12-06T06:22:24.210Z,13.75
2018-12-06T06:24:52.994Z,9.68
2018-12-06T06:27:26.403Z,7.72
2018-12-06T06:30:07.482Z,14.68
2018-12-06T06:32:36.281Z,14.45
2018-12-06T06:35:30.290Z,12.00
2018-12-06T06:38:01.073Z,10.70
2018-12-06T06:40:34.490Z,11.53
2018-12-06T06:43:07.162Z,14.05
2018-12-06T06:45:45.715Z,15.55
2018-12-06T06:48:27.906Z,13.20
2018-12-06T06:50:58.690Z,13.28
2018-12-06T06:53:38.495Z,13.83
2018-12-06T06:56:15.186Z,13.35
2018-12-06T06:58:43.987Z,15.50
2018-12-06T07:01:14.727Z,15.95
2018-12-06T07:03:44.546Z,15.88
2018-12-06T07:06:13.418Z,16.52
2018-12-06T07:08:47.910Z,16.37
2018-12-06T07:11:19.775Z,14.38
2018-12-06T07:13:50.568Z,14.78
2018-12-06T07:16:24.307Z,19.40
2018-12-06T07:18:54.059Z,20.95
2018-12-06T07:21:27.963Z,25.72
2018-12-06T07:24:00.671Z,28.23
2018-12-06T07:26:38.800Z,20.02
2018-12-06T07:29:07.742Z,15.05
2018-12-06T07:31:36.590Z,16.15
2018-12-06T07:34:08.911Z,26.57
2018-12-06T07:36:43.331Z,19.67
2018-12-06T07:39:20.711Z,26.52
2018-12-06T07:41:51.423Z,18.15
2018-12-06T07:44:37.458Z,21.87
2018-12-06T07:47:36.530Z,19.40
2018-12-06T07:50:05.631Z,15.32
2018-12-06T07:52:34.370Z,21.02
2018-12-06T07:55:08.139Z,18.15
2018-12-06T07:57:37.887Z,17.67
2018-12-06T08:00:18.455Z,18.17
2018-12-06T08:02:51.239Z,20.40
2018-12-06T08:05:20.147Z,20.40
2018-12-06T08:07:50.866Z,14.87
2018-12-06T08:10:33.527Z,20.75
2018-12-06T08:13:03.899Z,19.27
2018-12-06T08:15:37.867Z,26.27
2018-12-06T08:18:06.722Z,21.90
2018-12-06T08:20:39.563Z,18.82
2018-12-06T08:23:12.715Z,23.32
2018-12-06T08:28:45.595Z,32.75
2018-12-06T08:31:14.467Z,20.48
2018-12-06T08:33:44.215Z,25.72
2018-12-06T08:36:13.975Z,16.48
2018-12-06T08:38:51.246Z,26.45
2018-12-06T08:41:24.799Z,22.13
2018-12-06T08:43:56.071Z,17.65
2018-12-06T08:46:30.635Z,21.95
2018-12-06T08:49:03.152Z,26.97
2018-12-06T08:51:32.169Z,25.52
2018-12-06T08:54:01.030Z,20.62
2018-12-06T08:56:30.802Z,20.15
2018-12-06T08:58:59.639Z,25.15
2018-12-06T09:01:29.439Z,23.98
2018-12-06T09:03:59.135Z,23.27
2018-12-06T09:06:37.970Z,20.72
2018-12-06T09:09:10.951Z,24.98
2018-12-06T09:11:53.586Z,23.12
2018-12-06T09:14:37.015Z,24.00
2018-12-06T09:17:06.674Z,27.42
2018-12-06T09:19:35.375Z,25.35
2018-12-06T09:22:04.347Z,25.95
2018-12-06T09:24:34.171Z,25.57
2018-12-06T09:27:29.087Z,20.60
2018-12-06T09:30:03.795Z,24.18
2018-12-06T09:32:32.644Z,22.58
2018-12-06T09:35:09.587Z,24.60
2018-12-06T09:37:41.860Z,24.32
2018-12-06T09:40:11.666Z,14.35
2018-12-06T09:42:54.675Z,25.25
2018-12-06T09:45:37.875Z,21.33
2018-12-06T09:48:11.212Z,21.25
2018-12-06T09:50:45.543Z,31.17
2018-12-06T09:53:37.659Z,21.17
2018-12-06T09:56:24.178Z,26.57
2018-12-06T09:59:02.851Z,20.92
2018-12-06T10:01:32.592Z,18.85
2018-12-06T10:04:03.443Z,26.82
2018-12-06T10:06:33.175Z,22.00
2018-12-06T10:09:06.631Z,30.85
2018-12-06T10:11:36.356Z,30.27
2018-12-06T10:14:11.187Z,23.22
2018-12-06T10:17:08.618Z,27.93
2018-12-06T10:19:37.455Z,25.15
2018-12-06T10:22:07.259Z,22.90
2018-12-06T10:24:38.069Z,26.12
2018-12-06T10:27:10.983Z,23.42
2018-12-06T10:29:46.023Z,31.37
2018-12-06T10:32:14.767Z,28.23
2018-12-06T10:34:45.351Z,29.98
2018-12-06T10:37:15.283Z,28.57
2018-12-06T10:39:45.050Z,29.70
2018-12-06T10:42:17.195Z,33.70
2018-12-06T10:44:49.020Z,26.25
2018-12-06T10:47:17.932Z,31.65
2018-12-06T10:49:46.723Z,33.48
2018-12-06T10:52:22.867Z,30.92
2018-12-06T10:55:00.867Z,28.77
2018-12-06T10:57:34.599Z,27.60
2018-12-06T11:00:10.931Z,27.35
2018-12-06T11:02:48.094Z,26.15
2018-12-06T11:05:24.168Z,24.47
2018-12-06T11:07:56.072Z,39.92
2018-12-06T11:10:29.648Z,33.28
2018-12-06T11:13:08.664Z,30.75
2018-12-06T11:15:37.436Z,24.35
2018-12-06T11:18:06.336Z,26.52
2018-12-06T11:20:37.175Z,29.67
2018-12-06T11:23:06.112Z,32.30
2018-12-06T11:26:42.540Z,37.75
2018-12-06T11:29:12.316Z,31.65
2018-12-06T11:31:41.245Z,33.88
2018-12-06T11:34:11.064Z,33.10
2018-12-06T11:36:46.053Z,28.30
2018-12-06T11:39:14.821Z,25.60
2018-12-06T11:42:06.896Z,34.13
2018-12-06T11:44:36.720Z,26.73
2018-12-06T11:47:27.080Z,29.80
2018-12-06T11:50:01.977Z,42.60
2018-12-06T11:52:30.744Z,25.75
2018-12-06T11:55:06.712Z,39.23
2018-12-06T11:57:36.504Z,31.80
2018-12-06T12:00:06.196Z,29.30
2018-12-06T12:02:35.960Z,32.55
2018-12-06T12:05:05.692Z,29.52
2018-12-06T12:07:37.512Z,29.33
2018-12-06T12:10:07.348Z,36.23
2018-12-06T12:12:37.160Z,35.50
2018-12-06T12:15:07.465Z,32.07
2018-12-06T12:17:36.330Z,32.93
2018-12-06T12:20:07.680Z,25.57
2018-12-06T12:22:36.554Z,25.40
2018-12-06T12:25:05.861Z,25.87
2018-12-06T12:27:34.705Z,27.90
2018-12-06T12:30:08.383Z,23.73
2018-12-06T12:32:38.200Z,22.53
2018-12-06T12:35:07.903Z,21.40
2018-12-06T12:37:36.669Z,26.20
2018-12-06T12:40:09.036Z,29.60
2018-12-06T12:42:38.776Z,28.90
2018-12-06T12:45:15.097Z,26.13
2018-12-06T12:47:45.772Z,19.37
2018-12-06T12:50:16.388Z,26.83
2018-12-06T12:52:47.195Z,14.63
2018-12-06T12:55:34.644Z,23.27
2018-12-06T12:58:04.484Z,23.33
2018-12-06T13:00:38.660Z,18.63
2018-12-06T13:03:10.748Z,18.90
2018-12-06T13:05:41.492Z,21.27
2018-12-06T13:08:16.532Z,20.57
2018-12-06T13:10:48.544Z,17.10
2018-12-06T13:13:29.907Z,18.93
2018-12-06T13:15:58.628Z,17.83
2018-12-06T13:18:58.656Z,17.70
2018-12-06T13:21:28.716Z,21.90
2018-12-06T13:24:02.467Z,16.43
2018-12-06T13:26:31.338Z,18.87
2018-12-06T13:29:06.040Z,17.60
2018-12-06T13:31:34.876Z,17.97
2018-12-06T13:34:03.852Z,16.47
2018-12-06T13:36:32.672Z,17.40
2018-12-06T13:39:01.556Z,17.90
2018-12-06T13:41:30.360Z,21.63
2018-12-06T13:43:59.304Z,17.07
2018-12-06T13:46:28.016Z,17.40
2018-12-06T13:48:59.724Z,14.40
2018-12-06T13:51:30.512Z,16.87
2018-12-06T13:54:00.364Z,18.47
2018-12-06T13:56:31.104Z,15.70
2018-12-06T13:59:04.456Z,16.90
2018-12-06T14:01:35.300Z,14.63
2018-12-06T14:04:11.638Z,16.80
2018-12-06T14:06:41.392Z,18.57
2018-12-06T14:09:10.180Z,13.70
2018-12-06T14:11:39.048Z,14.30
2018-12-06T14:14:07.757Z,16.37
2018-12-06T14:16:36.624Z,21.90
2018-12-06T14:19:10.641Z,13.57
2018-12-06T14:21:44.900Z,19.10
2018-12-06T14:24:13.728Z,16.47
2018-12-06T14:26:43.540Z,14.07
2018-12-06T14:29:18.241Z,16.90
2018-12-06T14:31:51.040Z,16.00
2018-12-06T14:34:19.917Z,18.00
2018-12-06T14:37:01.721Z,18.00
2018-12-06T14:39:25.296Z,15.33
2018-12-06T14:41:55.044Z,13.10
2018-12-06T14:44:23.849Z,13.80
2018-12-06T14:46:53.684Z,20.97
2018-12-06T14:49:32.782Z,15.97
2018-12-06T14:52:04.946Z,15.93
2018-12-06T14:54:37.583Z,17.87
2018-12-06T14:57:10.257Z,14.40
2018-12-06T14:59:45.381Z,14.23
2018-12-06T15:02:15.173Z,13.37
2018-12-06T15:04:44.029Z,14.70
2018-12-06T15:07:17.713Z,13.60
2018-12-06T15:09:46.585Z,17.20
2018-12-06T15:12:17.302Z,14.57
2018-12-06T15:14:47.109Z,11.47
2018-12-06T15:17:28.340Z,11.10
2018-12-06T15:19:58.110Z,14.60
2018-12-06T15:22:28.905Z,12.40
2018-12-06T15:25:01.613Z,14.00
2018-12-06T15:27:34.405Z,14.50
2018-12-06T15:30:06.770Z,19.80
2018-12-06T15:32:37.537Z,13.63
2018-12-06T15:35:08.437Z,11.83
2018-12-06T15:37:37.312Z,11.40
2018-12-06T15:40:16.249Z,11.30
2018-12-06T15:42:45.050Z,18.50
2018-12-06T15:45:13.934Z,15.03
2018-12-06T15:47:43.649Z,16.27
2018-12-06T15:50:14.532Z,13.07
2018-12-06T15:52:49.817Z,19.03
2018-12-06T15:55:23.984Z,18.43
2018-12-06T15:57:57.635Z,16.40
2018-12-06T16:00:28.450Z,82.93
2018-12-06T16:03:01.046Z,30.00
2018-12-06T16:05:35.401Z,14.40
2018-12-06T16:08:23.792Z,12.13
2018-12-06T16:10:57.096Z,10.70
2018-12-06T16:13:26.892Z,17.00
2018-12-06T16:15:59.562Z,13.03
2018-12-06T16:18:29.389Z,37.90
2018-12-06T16:21:08.584Z,28.57
2018-12-06T16:23:41.997Z,19.23
2018-12-06T16:26:20.765Z,13.00
2018-12-06T16:31:49.948Z,15.90
2018-12-06T16:34:18.652Z,12.60
2018-12-06T16:36:47.524Z,14.83
2018-12-06T16:39:24.808Z,16.17
2018-12-06T16:41:53.629Z,17.70
2018-12-06T16:44:22.540Z,13.10
2018-12-06T16:46:52.224Z,12.43
2018-12-06T16:49:21.032Z,13.10
2018-12-06T16:51:49.996Z,14.20
2018-12-06T16:54:18.884Z,14.93
2018-12-06T16:56:59.776Z,11.87
2018-12-06T16:59:29.561Z,11.90
2018-12-06T17:02:06.941Z,12.93
2018-12-06T17:04:35.800Z,14.47
2018-12-06T17:07:07.711Z,12.20
2018-12-06T17:09:44.636Z,14.37
2018-12-06T17:12:15.320Z,15.57
2018-12-06T17:14:45.117Z,20.60
2018-12-06T17:17:15.994Z,16.50
2018-12-06T17:19:51.753Z,14.67
2018-12-06T17:22:21.484Z,13.60
2018-12-06T17:24:53.169Z,20.53
2018-12-06T17:27:26.237Z,14.40
2018-12-06T17:29:57.024Z,21.17
2018-12-06T17:32:26.852Z,19.33
2018-12-06T17:34:55.737Z,14.53
2018-12-06T17:37:28.189Z,27.97
2018-12-06T17:40:04.601Z,25.43
2018-12-06T17:42:36.701Z,18.27
2018-12-06T17:45:25.594Z,16.40
2018-12-06T17:48:26.205Z,16.47
2018-12-06T17:50:56.977Z,13.03
2018-12-06T17:53:34.209Z,15.63
2018-12-06T17:56:02.920Z,21.50
2018-12-06T17:58:37.285Z,25.80
2018-12-06T18:01:34.516Z,20.27
2018-12-06T18:04:14.573Z,13.50
2018-12-06T18:06:50.653Z,18.60
2018-12-06T18:09:25.170Z,17.93
2018-12-06T18:11:54.857Z,19.57
2018-12-06T18:14:27.761Z,19.73
2018-12-06T18:16:59.072Z,16.87
2018-12-06T18:19:35.681Z,14.83
2018-12-06T18:22:07.997Z,17.30
2018-12-06T18:24:38.864Z,15.70
2018-12-06T18:27:09.558Z,19.23
2018-12-06T18:29:42.750Z,26.90
2018-12-06T18:32:12.479Z,17.80
2018-12-06T18:34:44.225Z,19.27
2018-12-06T18:37:13.104Z,23.10
2018-12-06T18:39:43.865Z,14.70
2018-12-06T18:42:13.668Z,24.73
2018-12-06T18:44:42.533Z,12.90
2018-12-06T18:47:12.293Z,15.83
2018-12-06T18:49:45.788Z,14.83
2018-12-06T18:52:17.904Z,22.13
2018-12-06T18:54:54.252Z,15.90
2018-12-06T18:57:25.165Z,20.00
2018-12-06T18:59:54.920Z,21.23
2018-12-06T19:02:30.085Z,18.07
2018-12-06T19:04:59.901Z,18.07
2018-12-06T19:07:30.752Z,19.60
2018-12-06T19:09:59.544Z,24.90
2018-12-06T19:12:29.213Z,20.40
2018-12-06T19:14:59.000Z,21.70
2018-12-06T19:17:28.885Z,21.17
2018-12-06T19:19:57.713Z,26.33
2018-12-06T19:22:27.460Z,22.13
2018-12-06T19:24:57.137Z,30.70
2018-12-06T19:27:25.969Z,28.87
2018-12-06T19:29:55.644Z,26.03
2018-12-06T19:32:25.549Z,24.93
2018-12-06T19:35:00.225Z,18.87
2018-12-06T19:37:31.027Z,26.73
2018-12-06T19:40:00.877Z,23.80
2018-12-06T19:42:30.737Z,18.30
2018-12-06T19:45:08.609Z,22.50
2018-12-06T19:47:38.384Z,30.10
2018-12-06T19:50:08.238Z,29.23
2018-12-06T19:52:39.001Z,24.57
2018-12-06T19:55:08.802Z,29.93
2018-12-06T19:57:39.598Z,24.93
2018-12-06T20:00:10.457Z,28.90
2018-12-06T20:02:41.173Z,19.20
2018-12-06T20:05:11.201Z,27.17
2018-12-06T20:07:39.975Z,26.13
2018-12-06T20:10:11.876Z,31.97
2018-12-06T20:12:45.426Z,20.77
2018-12-06T20:15:16.241Z,24.03
2018-12-06T20:17:48.121Z,23.57
2018-12-06T20:20:23.303Z,21.73
2018-12-06T20:22:57.341Z,22.17
2018-12-06T20:25:27.217Z,24.73
2018-12-06T20:27:55.997Z,21.20
2018-12-06T20:30:24.757Z,16.50
2018-12-06T20:32:54.577Z,18.93
2018-12-06T20:35:23.453Z,22.63
2018-12-06T20:37:52.174Z,20.57
2018-12-06T20:40:22.037Z,23.07
2018-12-06T20:42:52.749Z,23.77
2018-12-06T20:45:21.627Z,18.73
2018-12-06T20:47:50.457Z,20.23
2018-12-06T20:50:24.277Z,19.20
2018-12-06T20:52:53.003Z,18.00
2018-12-06T20:55:22.953Z,18.00
2018-12-06T20:57:52.661Z,18.33
2018-12-06T21:00:22.451Z,15.77
2018-12-06T21:02:51.185Z,16.93
2018-12-06T21:05:19.925Z,20.27
2018-12-06T21:07:55.942Z,26.50
2018-12-06T21:10:26.769Z,13.37
2018-12-06T21:12:57.454Z,19.83
2018-12-06T21:15:27.338Z,18.67
2018-12-06T21:17:57.086Z,22.37
2018-12-06T21:20:25.882Z,19.33
2018-12-06T21:22:55.532Z,17.20
2018-12-06T21:25:25.226Z,16.83
2018-12-06T21:27:55.998Z,19.17
2018-12-06T21:30:26.742Z,20.33
2018-12-06T21:32:55.617Z,16.80
2018-12-06T21:35:25.369Z,21.17
2018-12-06T21:37:55.398Z,20.00
2018-12-06T21:40:24.354Z,17.60
2018-12-06T21:42:55.015Z,27.33
2018-12-06T21:45:24.774Z,14.70
2018-12-06T21:48:01.574Z,20.03
2018-12-06T21:50:30.399Z,21.27
2018-12-06T21:53:01.226Z,17.03
2018-12-06T21:55:32.038Z,12.83
2018-12-06T21:58:01.834Z,20.60
2018-12-06T22:00:30.654Z,16.80
2018-12-06T22:02:59.942Z,19.63
2018-12-06T22:05:28.698Z,14.80
2018-12-06T22:08:02.818Z,18.43
2018-12-06T22:10:31.695Z,18.50
2018-12-06T22:13:01.562Z,15.70
2018-12-06T22:15:36.966Z,15.23
2018-12-06T22:18:07.802Z,16.70
2018-12-06T22:20:41.994Z,17.30
2018-12-06T22:23:16.867Z,13.20
2018-12-06T22:26:04.917Z,13.90
2018-12-06T22:28:34.679Z,16.70
2018-12-06T22:31:03.599Z,13.47
2018-12-06T22:33:34.411Z,12.97
2018-12-06T22:36:04.315Z,12.03
2018-12-06T22:38:34.491Z,11.33
2018-12-06T22:41:06.802Z,10.70
2018-12-06T22:43:37.707Z,11.10
2018-12-06T22:46:14.590Z,10.17
2018-12-06T22:48:43.355Z,12.33
2018-12-06T22:51:24.198Z,8.93
2018-12-06T22:53:49.475Z,11.90
2018-12-06T22:56:23.135Z,13.30
2018-12-06T22:58:52.000Z,8.80
2018-12-06T23:01:22.739Z,9.43
2018-12-06T23:03:51.554Z,10.10
2018-12-06T23:06:20.477Z,9.70
2018-12-06T23:08:50.122Z,8.30
2018-12-06T23:11:19.258Z,6.67
2018-12-06T23:13:54.050Z,8.60
2018-12-06T23:16:23.986Z,8.10
2018-12-06T23:18:58.398Z,12.00
2018-12-06T23:21:28.150Z,11.40
2018-12-06T23:24:00.955Z,15.30
2018-12-06T23:26:29.815Z,11.17
2018-12-06T23:29:04.442Z,8.07
2018-12-06T23:31:34.518Z,9.40
2018-12-06T23:34:05.202Z,11.47
2018-12-06T23:36:34.102Z,7.73
2018-12-06T23:39:06.626Z,11.10
2018-12-06T23:41:35.500Z,7.03
2018-12-06T23:44:16.894Z,12.13
2018-12-06T23:46:46.719Z,9.23
2018-12-06T23:49:16.562Z,9.00
2018-12-06T23:51:46.354Z,10.57
2018-12-06T23:54:18.478Z,11.90
2018-12-06T23:56:47.267Z,10.17
2018-12-06T23:59:24.788Z,9.90
